createdAt,value
2022-11-21T00:06:49.859Z,39.30502
2022-11-21T00:21:52.385Z,6.33952
2022-11-21T00:36:54.977Z,0
2022-11-21T00:51:57.763Z,0
2022-11-21T01:07:00.343Z,0
2022-11-21T01:22:03.051Z,0
2022-11-21T01:37:05.434Z,0
2022-11-21T01:52:07.701Z,0
2022-11-21T02:07:10.064Z,0
2022-11-21T02:22:12.734Z,0
2022-11-21T02:37:15.182Z,0
2022-11-21T02:52:17.521Z,0
2022-11-21T03:07:20.750Z,0
2022-11-21T03:22:23.094Z,0
2022-11-21T03:37:25.544Z,0
2022-11-21T03:52:28.004Z,0
2022-11-21T04:07:30.562Z,0
2022-11-21T04:22:33.130Z,0
2022-11-21T04:37:35.557Z,0
2022-11-21T04:52:37.870Z,0
2022-11-21T05:07:40.309Z,0
2022-11-21T05:22:42.722Z,0
2022-11-21T05:37:45.219Z,0
2022-11-21T05:52:47.623Z,0
2022-11-21T06:07:50.387Z,0
2022-11-21T06:22:53.104Z,0
2022-11-21T06:37:56.767Z,0
2022-11-21T06:52:59.048Z,0
2022-11-21T07:08:01.657Z,0
2022-11-21T07:23:04.315Z,0
2022-11-21T07:38:06.601Z,0
2022-11-21T07:53:08.953Z,0
2022-11-21T08:08:11.263Z,0
2022-11-21T08:23:13.536Z,0
2022-11-21T08:38:16.224Z,0
2022-11-21T08:53:19.366Z,0
2022-11-21T09:08:22.142Z,0
2022-11-21T09:23:25.094Z,0
2022-11-21T09:38:45.944Z,0
2022-11-21T09:53:49.625Z,0
2022-11-21T10:08:52.143Z,0
2022-11-21T10:23:54.820Z,0
2022-11-21T10:38:57.374Z,0
2022-11-21T10:54:04.588Z,0
2022-11-21T11:09:09.047Z,0
2022-11-21T11:24:11.402Z,0
2022-11-21T11:39:13.902Z,0
2022-11-21T11:54:16.405Z,0
2022-11-21T12:09:18.865Z,0
2022-11-21T12:24:21.341Z,0
2022-11-21T12:39:23.964Z,0
2022-11-21T12:54:26.339Z,0
2022-11-21T13:09:29.252Z,0
2022-11-21T13:24:32.092Z,0
2022-11-21T13:39:35.012Z,0
2022-11-21T13:54:37.522Z,0
2022-11-21T14:09:39.929Z,0
2022-11-21T14:24:43.289Z,0
2022-11-21T14:39:46.056Z,1.2679
2022-11-21T14:55:22.330Z,22.82227
2022-11-21T15:10:31.072Z,131.862
2022-11-21T15:25:33.569Z,316.97595
2022-11-21T15:40:35.847Z,465.32071
2022-11-21T15:55:38.170Z,729.04468
2022-11-21T16:10:40.572Z,1179.15051
2022-11-21T16:25:42.918Z,2648.65112
2022-11-21T16:40:45.294Z,2055.27197
2022-11-21T16:55:47.492Z,2590.32739
2022-11-21T17:10:49.774Z,2781.78101
2022-11-21T17:25:52.566Z,3215.40405
2022-11-21T17:40:54.765Z,3804.97925
2022-11-21T17:55:57.124Z,4626.58105
2022-11-21T18:10:59.327Z,4816.7666
2022-11-21T18:26:01.575Z,4017.98706
2022-11-21T18:41:03.860Z,3831.60522
2022-11-21T18:56:06.550Z,3651.56299
2022-11-21T19:11:13.958Z,3258.5127
2022-11-21T19:26:16.118Z,2807.13892
2022-11-21T19:41:18.319Z,2518.05688
2022-11-21T19:56:20.531Z,2240.38599
2022-11-21T20:11:22.864Z,2330.40723
2022-11-21T20:26:25.332Z,2406.48145
2022-11-21T20:41:27.610Z,2487.6272
2022-11-21T20:56:29.835Z,2275.88745
2022-11-21T21:11:51.053Z,2060.34375
2022-11-21T21:26:55.113Z,1977.92993
2022-11-21T21:41:57.331Z,2161.77588
2022-11-21T21:57:01.994Z,2776.70923
2022-11-21T22:12:04.327Z,1918.3385
2022-11-21T22:27:06.690Z,1588.68347
2022-11-21T22:42:08.888Z,1098.00464
2022-11-21T22:57:11.244Z,813.99426
2022-11-21T23:12:13.733Z,562.94928
2022-11-21T23:27:16.064Z,353.74515
2022-11-21T23:42:18.293Z,182.57816
2022-11-21T23:57:20.539Z,63.39519
